sensor_id;sensor_type;location;lat;lon;timestamp;temperature;humidity
69206;SHT30;56319;48.920;2.332;2023-09-19T00:02:02;25.96;48.11
69206;SHT30;56319;48.920;2.332;2023-09-19T00:04:32;25.94;48.10
69206;SHT30;56319;48.920;2.332;2023-09-19T00:06:58;25.92;48.10
69206;SHT30;56319;48.920;2.332;2023-09-19T00:09:24;25.94;48.10
69206;SHT30;56319;48.920;2.332;2023-09-19T00:11:53;25.90;48.06
69206;SHT30;56319;48.920;2.332;2023-09-19T00:14:19;25.92;48.01
69206;SHT30;56319;48.920;2.332;2023-09-19T00:16:45;25.92;47.99
69206;SHT30;56319;48.920;2.332;2023-09-19T00:19:12;25.89;47.96
69206;SHT30;56319;48.920;2.332;2023-09-19T00:21:38;25.90;47.94
69206;SHT30;56319;48.920;2.332;2023-09-19T00:24:05;25.90;47.91
69206;SHT30;56319;48.920;2.332;2023-09-19T00:26:32;25.89;47.90
69206;SHT30;56319;48.920;2.332;2023-09-19T00:28:57;25.89;47.89
69206;SHT30;56319;48.920;2.332;2023-09-19T00:31:25;25.86;47.83
69206;SHT30;56319;48.920;2.332;2023-09-19T00:33:50;25.86;47.83
69206;SHT30;56319;48.920;2.332;2023-09-19T00:36:16;25.85;47.81
69206;SHT30;56319;48.920;2.332;2023-09-19T00:38:43;25.88;47.77
69206;SHT30;56319;48.920;2.332;2023-09-19T00:41:11;25.86;47.75
69206;SHT30;56319;48.920;2.332;2023-09-19T00:43:38;25.83;47.80
69206;SHT30;56319;48.920;2.332;2023-09-19T00:46:06;25.86;47.74
69206;SHT30;56319;48.920;2.332;2023-09-19T00:48:38;25.83;47.72
69206;SHT30;56319;48.920;2.332;2023-09-19T00:51:05;25.83;47.71
69206;SHT30;56319;48.920;2.332;2023-09-19T00:53:31;25.83;47.63
69206;SHT30;56319;48.920;2.332;2023-09-19T00:55:57;25.83;47.61
69206;SHT30;56319;48.920;2.332;2023-09-19T00:58:22;25.82;47.68
69206;SHT30;56319;48.920;2.332;2023-09-19T01:00:49;25.80;47.60
69206;SHT30;56319;48.920;2.332;2023-09-19T01:03:15;25.80;47.63
69206;SHT30;56319;48.920;2.332;2023-09-19T01:05:40;25.79;47.64
69206;SHT30;56319;48.920;2.332;2023-09-19T01:08:06;25.79;47.63
69206;SHT30;56319;48.920;2.332;2023-09-19T01:10:33;25.79;47.56
69206;SHT30;56319;48.920;2.332;2023-09-19T01:13:08;25.79;47.60
69206;SHT30;56319;48.920;2.332;2023-09-19T01:15:50;25.79;47.58
69206;SHT30;56319;48.920;2.332;2023-09-19T01:21:29;25.76;47.54
69206;SHT30;56319;48.920;2.332;2023-09-19T01:30:14;25.75;47.51
69206;SHT30;56319;48.920;2.332;2023-09-19T01:32:39;25.75;47.54
69206;SHT30;56319;48.920;2.332;2023-09-19T01:35:06;25.75;47.47
69206;SHT30;56319;48.920;2.332;2023-09-19T01:37:37;25.75;47.47
69206;SHT30;56319;48.920;2.332;2023-09-19T01:40:07;25.73;47.46
69206;SHT30;56319;48.920;2.332;2023-09-19T01:45:57;25.73;47.47
69206;SHT30;56319;48.920;2.332;2023-09-19T01:48:49;25.72;47.44
69206;SHT30;56319;48.920;2.332;2023-09-19T01:51:32;25.71;47.44
69206;SHT30;56319;48.920;2.332;2023-09-19T01:54:03;25.72;47.44
69206;SHT30;56319;48.920;2.332;2023-09-19T01:56:37;25.72;47.48
69206;SHT30;56319;48.920;2.332;2023-09-19T01:59:11;25.69;47.43
69206;SHT30;56319;48.920;2.332;2023-09-19T02:01:39;25.71;47.41
69206;SHT30;56319;48.920;2.332;2023-09-19T02:04:05;25.68;47.39
69206;SHT30;56319;48.920;2.332;2023-09-19T02:06:32;25.68;47.44
69206;SHT30;56319;48.920;2.332;2023-09-19T02:08:59;25.71;47.38
69206;SHT30;56319;48.920;2.332;2023-09-19T02:11:25;25.69;47.37
69206;SHT30;56319;48.920;2.332;2023-09-19T02:13:51;25.68;47.41
69206;SHT30;56319;48.920;2.332;2023-09-19T02:16:20;25.66;47.38
69206;SHT30;56319;48.920;2.332;2023-09-19T02:18:49;25.66;47.38
69206;SHT30;56319;48.920;2.332;2023-09-19T02:21:15;25.66;47.38
69206;SHT30;56319;48.920;2.332;2023-09-19T02:23:43;25.63;47.29
69206;SHT30;56319;48.920;2.332;2023-09-19T02:26:08;25.66;47.31
69206;SHT30;56319;48.920;2.332;2023-09-19T02:28:34;25.63;47.32
69206;SHT30;56319;48.920;2.332;2023-09-19T02:31:01;25.65;47.30
69206;SHT30;56319;48.920;2.332;2023-09-19T02:33:27;25.63;47.32
69206;SHT30;56319;48.920;2.332;2023-09-19T02:35:56;25.63;47.30
69206;SHT30;56319;48.920;2.332;2023-09-19T02:38:23;25.62;47.25
69206;SHT30;56319;48.920;2.332;2023-09-19T02:40:50;25.62;47.29
69206;SHT30;56319;48.920;2.332;2023-09-19T02:43:16;25.62;47.32
69206;SHT30;56319;48.920;2.332;2023-09-19T02:45:42;25.61;47.30
69206;SHT30;56319;48.920;2.332;2023-09-19T02:48:08;25.59;47.25
69206;SHT30;56319;48.920;2.332;2023-09-19T02:50:34;25.61;47.25
69206;SHT30;56319;48.920;2.332;2023-09-19T02:52:59;25.59;47.26
69206;SHT30;56319;48.920;2.332;2023-09-19T02:55:25;25.57;47.22
69206;SHT30;56319;48.920;2.332;2023-09-19T02:57:52;25.55;47.27
69206;SHT30;56319;48.920;2.332;2023-09-19T03:00:20;25.57;47.19
69206;SHT30;56319;48.920;2.332;2023-09-19T03:02:50;25.59;47.20
69206;SHT30;56319;48.920;2.332;2023-09-19T03:05:17;25.54;47.20
69206;SHT30;56319;48.920;2.332;2023-09-19T03:07:43;25.55;47.20
69206;SHT30;56319;48.920;2.332;2023-09-19T03:10:11;25.54;47.19
69206;SHT30;56319;48.920;2.332;2023-09-19T03:12:36;25.49;47.19
69206;SHT30;56319;48.920;2.332;2023-09-19T03:15:03;25.51;47.19
69206;SHT30;56319;48.920;2.332;2023-09-19T03:17:29;25.51;47.18
69206;SHT30;56319;48.920;2.332;2023-09-19T03:19:55;25.49;47.07
69206;SHT30;56319;48.920;2.332;2023-09-19T03:22:22;25.51;47.16
69206;SHT30;56319;48.920;2.332;2023-09-19T03:24:49;25.48;47.16
69206;SHT30;56319;48.920;2.332;2023-09-19T03:27:15;25.48;47.15
69206;SHT30;56319;48.920;2.332;2023-09-19T03:29:42;25.48;47.11
69206;SHT30;56319;48.920;2.332;2023-09-19T03:32:08;25.47;47.04
69206;SHT30;56319;48.920;2.332;2023-09-19T03:34:37;25.47;47.17
69206;SHT30;56319;48.920;2.332;2023-09-19T03:37:06;25.45;47.10
69206;SHT30;56319;48.920;2.332;2023-09-19T03:39:32;25.45;47.02
69206;SHT30;56319;48.920;2.332;2023-09-19T03:41:58;25.44;47.08
69206;SHT30;56319;48.920;2.332;2023-09-19T03:44:23;25.45;47.10
69206;SHT30;56319;48.920;2.332;2023-09-19T03:46:49;25.45;47.09
69206;SHT30;56319;48.920;2.332;2023-09-19T03:49:14;25.44;47.05
69206;SHT30;56319;48.920;2.332;2023-09-19T03:51:40;25.44;47.02
69206;SHT30;56319;48.920;2.332;2023-09-19T03:54:07;25.42;47.05
69206;SHT30;56319;48.920;2.332;2023-09-19T03:56:33;25.42;46.99
69206;SHT30;56319;48.920;2.332;2023-09-19T03:58:58;25.42;47.05
69206;SHT30;56319;48.920;2.332;2023-09-19T04:01:24;25.39;47.01
69206;SHT30;56319;48.920;2.332;2023-09-19T04:03:49;25.38;47.00
69206;SHT30;56319;48.920;2.332;2023-09-19T04:06:17;25.38;46.96
69206;SHT30;56319;48.920;2.332;2023-09-19T04:08:43;25.38;46.92
69206;SHT30;56319;48.920;2.332;2023-09-19T04:11:10;25.38;46.95
69206;SHT30;56319;48.920;2.332;2023-09-19T04:13:36;25.37;46.97
69206;SHT30;56319;48.920;2.332;2023-09-19T04:16:02;25.38;46.96
69206;SHT30;56319;48.920;2.332;2023-09-19T04:18:29;25.38;46.99
69206;SHT30;56319;48.920;2.332;2023-09-19T04:20:58;25.37;46.87
69206;SHT30;56319;48.920;2.332;2023-09-19T04:23:23;25.37;46.94
69206;SHT30;56319;48.920;2.332;2023-09-19T04:25:49;25.33;46.94
69206;SHT30;56319;48.920;2.332;2023-09-19T04:28:15;25.34;46.87
69206;SHT30;56319;48.920;2.332;2023-09-19T04:30:41;25.34;46.92
69206;SHT30;56319;48.920;2.332;2023-09-19T04:33:07;25.33;46.94
69206;SHT30;56319;48.920;2.332;2023-09-19T04:35:33;25.31;46.87
69206;SHT30;56319;48.920;2.332;2023-09-19T04:37:59;25.30;46.94
69206;SHT30;56319;48.920;2.332;2023-09-19T04:40:25;25.33;46.89
69206;SHT30;56319;48.920;2.332;2023-09-19T04:42:54;25.30;46.87
69206;SHT30;56319;48.920;2.332;2023-09-19T04:45:23;25.30;46.89
69206;SHT30;56319;48.920;2.332;2023-09-19T04:47:49;25.31;46.88
69206;SHT30;56319;48.920;2.332;2023-09-19T04:50:14;25.28;46.83
69206;SHT30;56319;48.920;2.332;2023-09-19T04:52:41;25.27;46.85
69206;SHT30;56319;48.920;2.332;2023-09-19T04:55:10;25.27;46.91
69206;SHT30;56319;48.920;2.332;2023-09-19T04:57:36;25.27;46.85
69206;SHT30;56319;48.920;2.332;2023-09-19T05:00:02;25.26;46.84
69206;SHT30;56319;48.920;2.332;2023-09-19T05:02:37;25.24;46.83
69206;SHT30;56319;48.920;2.332;2023-09-19T05:05:03;25.23;46.83
69206;SHT30;56319;48.920;2.332;2023-09-19T05:07:30;25.23;46.78
69206;SHT30;56319;48.920;2.332;2023-09-19T05:09:55;25.23;46.82
69206;SHT30;56319;48.920;2.332;2023-09-19T05:12:21;25.24;46.86
69206;SHT30;56319;48.920;2.332;2023-09-19T05:14:46;25.24;46.81
69206;SHT30;56319;48.920;2.332;2023-09-19T05:17:13;25.23;46.78
69206;SHT30;56319;48.920;2.332;2023-09-19T05:19:42;25.21;46.81
69206;SHT30;56319;48.920;2.332;2023-09-19T05:22:08;25.21;46.86
69206;SHT30;56319;48.920;2.332;2023-09-19T05:24:33;25.20;46.82
69206;SHT30;56319;48.920;2.332;2023-09-19T05:26:59;25.20;46.83
69206;SHT30;56319;48.920;2.332;2023-09-19T05:29:24;25.23;46.85
69206;SHT30;56319;48.920;2.332;2023-09-19T05:31:50;25.19;46.78
69206;SHT30;56319;48.920;2.332;2023-09-19T05:34:16;25.16;46.78
69206;SHT30;56319;48.920;2.332;2023-09-19T05:36:42;25.17;46.77
69206;SHT30;56319;48.920;2.332;2023-09-19T05:39:08;25.17;46.79
69206;SHT30;56319;48.920;2.332;2023-09-19T05:41:35;25.17;46.73
69206;SHT30;56319;48.920;2.332;2023-09-19T05:44:05;25.16;46.78
69206;SHT30;56319;48.920;2.332;2023-09-19T05:46:32;25.13;46.77
69206;SHT30;56319;48.920;2.332;2023-09-19T05:48:58;25.14;46.74
69206;SHT30;56319;48.920;2.332;2023-09-19T05:51:23;25.14;46.70
69206;SHT30;56319;48.920;2.332;2023-09-19T05:53:50;25.14;46.77
69206;SHT30;56319;48.920;2.332;2023-09-19T05:56:16;25.16;46.71
69206;SHT30;56319;48.920;2.332;2023-09-19T05:58:44;25.11;46.74
69206;SHT30;56319;48.920;2.332;2023-09-19T06:01:10;25.10;46.76
69206;SHT30;56319;48.920;2.332;2023-09-19T06:03:35;25.13;46.74
69206;SHT30;56319;48.920;2.332;2023-09-19T06:06:01;25.13;46.74
69206;SHT30;56319;48.920;2.332;2023-09-19T06:08:30;25.13;46.76
69206;SHT30;56319;48.920;2.332;2023-09-19T06:10:56;25.14;46.69
69206;SHT30;56319;48.920;2.332;2023-09-19T06:13:22;25.11;46.72
69206;SHT30;56319;48.920;2.332;2023-09-19T06:15:48;25.10;46.72
69206;SHT30;56319;48.920;2.332;2023-09-19T06:18:14;25.10;46.77
69206;SHT30;56319;48.920;2.332;2023-09-19T06:20:47;25.13;46.71
69206;SHT30;56319;48.920;2.332;2023-09-19T06:23:13;25.10;46.67
69206;SHT30;56319;48.920;2.332;2023-09-19T06:25:40;25.13;46.67
69206;SHT30;56319;48.920;2.332;2023-09-19T06:28:06;25.10;46.70
69206;SHT30;56319;48.920;2.332;2023-09-19T06:30:34;25.09;46.66
69206;SHT30;56319;48.920;2.332;2023-09-19T06:33:00;25.10;46.64
69206;SHT30;56319;48.920;2.332;2023-09-19T06:35:26;25.10;46.65
69206;SHT30;56319;48.920;2.332;2023-09-19T06:37:54;25.09;46.68
69206;SHT30;56319;48.920;2.332;2023-09-19T06:40:23;25.07;46.64
69206;SHT30;56319;48.920;2.332;2023-09-19T06:42:51;25.10;46.59
69206;SHT30;56319;48.920;2.332;2023-09-19T06:45:18;25.06;46.64
69206;SHT30;56319;48.920;2.332;2023-09-19T06:47:46;25.06;46.64
69206;SHT30;56319;48.920;2.332;2023-09-19T06:50:14;25.06;46.65
69206;SHT30;56319;48.920;2.332;2023-09-19T06:52:41;25.09;46.65
69206;SHT30;56319;48.920;2.332;2023-09-19T06:55:07;25.09;46.60
69206;SHT30;56319;48.920;2.332;2023-09-19T06:57:35;25.06;46.67
69206;SHT30;56319;48.920;2.332;2023-09-19T07:00:01;25.07;46.62
69206;SHT30;56319;48.920;2.332;2023-09-19T07:02:27;25.06;46.60
69206;SHT30;56319;48.920;2.332;2023-09-19T07:04:52;25.03;46.56
69206;SHT30;56319;48.920;2.332;2023-09-19T07:07:18;25.07;46.61
69206;SHT30;56319;48.920;2.332;2023-09-19T07:09:43;25.06;46.56
69206;SHT30;56319;48.920;2.332;2023-09-19T07:12:09;25.04;46.57
69206;SHT30;56319;48.920;2.332;2023-09-19T07:14:35;25.06;46.56
69206;SHT30;56319;48.920;2.332;2023-09-19T07:17:00;25.04;46.59
69206;SHT30;56319;48.920;2.332;2023-09-19T07:19:27;25.07;46.56
69206;SHT30;56319;48.920;2.332;2023-09-19T07:21:54;25.06;46.51
69206;SHT30;56319;48.920;2.332;2023-09-19T07:24:19;25.06;46.56
69206;SHT30;56319;48.920;2.332;2023-09-19T07:26:47;25.07;46.55
69206;SHT30;56319;48.920;2.332;2023-09-19T07:29:13;25.06;46.51
69206;SHT30;56319;48.920;2.332;2023-09-19T07:31:38;25.04;46.54
69206;SHT30;56319;48.920;2.332;2023-09-19T07:34:04;25.06;46.52
69206;SHT30;56319;48.920;2.332;2023-09-19T07:36:30;25.06;46.50
69206;SHT30;56319;48.920;2.332;2023-09-19T07:38:57;25.04;46.50
69206;SHT30;56319;48.920;2.332;2023-09-19T07:41:24;25.07;46.53
69206;SHT30;56319;48.920;2.332;2023-09-19T07:43:51;25.04;46.50
69206;SHT30;56319;48.920;2.332;2023-09-19T07:46:16;25.04;46.43
69206;SHT30;56319;48.920;2.332;2023-09-19T07:48:42;25.07;46.47
69206;SHT30;56319;48.920;2.332;2023-09-19T07:51:13;25.04;46.42
69206;SHT30;56319;48.920;2.332;2023-09-19T07:53:41;25.07;46.44
69206;SHT30;56319;48.920;2.332;2023-09-19T07:56:08;25.10;46.40
69206;SHT30;56319;48.920;2.332;2023-09-19T07:58:35;25.07;46.43
69206;SHT30;56319;48.920;2.332;2023-09-19T08:01:04;25.07;46.38
69206;SHT30;56319;48.920;2.332;2023-09-19T08:03:30;25.04;46.41
69206;SHT30;56319;48.920;2.332;2023-09-19T08:05:56;25.07;46.36
69206;SHT30;56319;48.920;2.332;2023-09-19T08:08:23;25.07;46.32
69206;SHT30;56319;48.920;2.332;2023-09-19T08:11:08;25.07;46.33
69206;SHT30;56319;48.920;2.332;2023-09-19T08:13:38;25.07;46.31
69206;SHT30;56319;48.920;2.332;2023-09-19T08:16:10;25.09;46.31
69206;SHT30;56319;48.920;2.332;2023-09-19T08:18:36;25.06;46.32
69206;SHT30;56319;48.920;2.332;2023-09-19T08:21:05;25.07;46.27
69206;SHT30;56319;48.920;2.332;2023-09-19T08:23:36;25.04;46.28
69206;SHT30;56319;48.920;2.332;2023-09-19T08:26:04;25.06;46.28
69206;SHT30;56319;48.920;2.332;2023-09-19T08:28:34;25.07;46.27
69206;SHT30;56319;48.920;2.332;2023-09-19T08:31:02;25.07;46.29
69206;SHT30;56319;48.920;2.332;2023-09-19T08:33:32;25.09;46.25
69206;SHT30;56319;48.920;2.332;2023-09-19T08:35:59;25.06;46.22
69206;SHT30;56319;48.920;2.332;2023-09-19T08:38:24;25.09;46.22
69206;SHT30;56319;48.920;2.332;2023-09-19T08:40:57;25.09;46.18
69206;SHT30;56319;48.920;2.332;2023-09-19T08:43:25;25.09;46.15
69206;SHT30;56319;48.920;2.332;2023-09-19T08:45:58;25.10;46.15
69206;SHT30;56319;48.920;2.332;2023-09-19T08:48:26;25.10;46.15
69206;SHT30;56319;48.920;2.332;2023-09-19T08:51:06;25.10;46.14
69206;SHT30;56319;48.920;2.332;2023-09-19T08:53:54;25.10;46.15
69206;SHT30;56319;48.920;2.332;2023-09-19T08:56:26;25.11;46.05
69206;SHT30;56319;48.920;2.332;2023-09-19T08:58:57;25.13;46.09
69206;SHT30;56319;48.920;2.332;2023-09-19T09:01:27;25.14;46.03
69206;SHT30;56319;48.920;2.332;2023-09-19T09:03:55;25.13;46.06
69206;SHT30;56319;48.920;2.332;2023-09-19T09:06:22;25.13;46.09
69206;SHT30;56319;48.920;2.332;2023-09-19T09:08:50;25.11;46.08
69206;SHT30;56319;48.920;2.332;2023-09-19T09:11:17;25.11;46.05
69206;SHT30;56319;48.920;2.332;2023-09-19T09:13:44;25.10;45.99
69206;SHT30;56319;48.920;2.332;2023-09-19T09:16:10;25.13;46.00
69206;SHT30;56319;48.920;2.332;2023-09-19T09:18:36;25.14;46.03
69206;SHT30;56319;48.920;2.332;2023-09-19T09:21:02;25.14;46.04
69206;SHT30;56319;48.920;2.332;2023-09-19T09:23:30;25.11;45.99
69206;SHT30;56319;48.920;2.332;2023-09-19T09:25:57;25.14;46.01
69206;SHT30;56319;48.920;2.332;2023-09-19T09:28:26;25.13;46.02
69206;SHT30;56319;48.920;2.332;2023-09-19T09:30:52;25.14;46.02
69206;SHT30;56319;48.920;2.332;2023-09-19T09:33:18;25.14;45.99
69206;SHT30;56319;48.920;2.332;2023-09-19T09:35:59;25.14;45.98
69206;SHT30;56319;48.920;2.332;2023-09-19T09:38:30;25.16;45.98
69206;SHT30;56319;48.920;2.332;2023-09-19T09:41:09;25.16;45.98
69206;SHT30;56319;48.920;2.332;2023-09-19T09:43:38;25.16;45.92
69206;SHT30;56319;48.920;2.332;2023-09-19T09:46:10;25.17;45.92
69206;SHT30;56319;48.920;2.332;2023-09-19T09:48:59;25.16;45.91
69206;SHT30;56319;48.920;2.332;2023-09-19T09:51:49;25.17;45.92
69206;SHT30;56319;48.920;2.332;2023-09-19T09:54:35;25.19;45.90
69206;SHT30;56319;48.920;2.332;2023-09-19T09:57:05;25.20;45.90
69206;SHT30;56319;48.920;2.332;2023-09-19T09:59:59;25.21;45.85
69206;SHT30;56319;48.920;2.332;2023-09-19T10:02:42;25.23;45.80
69206;SHT30;56319;48.920;2.332;2023-09-19T10:05:21;25.20;45.86
69206;SHT30;56319;48.920;2.332;2023-09-19T10:07:54;25.24;45.85
69206;SHT30;56319;48.920;2.332;2023-09-19T10:10:45;25.21;45.80
69206;SHT30;56319;48.920;2.332;2023-09-19T10:13:19;25.24;45.82
69206;SHT30;56319;48.920;2.332;2023-09-19T10:15:51;25.26;45.77
69206;SHT30;56319;48.920;2.332;2023-09-19T10:18:21;25.26;45.74
69206;SHT30;56319;48.920;2.332;2023-09-19T10:20:47;25.27;45.73
69206;SHT30;56319;48.920;2.332;2023-09-19T10:23:17;25.30;45.75
69206;SHT30;56319;48.920;2.332;2023-09-19T10:25:48;25.28;45.69
69206;SHT30;56319;48.920;2.332;2023-09-19T10:28:15;25.31;45.71
69206;SHT30;56319;48.920;2.332;2023-09-19T10:30:43;25.31;45.64
69206;SHT30;56319;48.920;2.332;2023-09-19T10:33:12;25.37;45.55
69206;SHT30;56319;48.920;2.332;2023-09-19T10:35:39;25.35;45.58
69206;SHT30;56319;48.920;2.332;2023-09-19T10:38:06;25.39;45.58
69206;SHT30;56319;48.920;2.332;2023-09-19T10:40:34;25.41;45.48
69206;SHT30;56319;48.920;2.332;2023-09-19T10:43:03;25.38;45.43
69206;SHT30;56319;48.920;2.332;2023-09-19T10:45:32;25.38;45.44
69206;SHT30;56319;48.920;2.332;2023-09-19T10:47:59;25.41;45.51
69206;SHT30;56319;48.920;2.332;2023-09-19T10:50:30;25.39;45.41
69206;SHT30;56319;48.920;2.332;2023-09-19T10:53:00;25.37;45.39
69206;SHT30;56319;48.920;2.332;2023-09-19T10:55:31;25.41;45.47
69206;SHT30;56319;48.920;2.332;2023-09-19T10:57:56;25.41;45.41
69206;SHT30;56319;48.920;2.332;2023-09-19T11:00:51;25.41;45.37
69206;SHT30;56319;48.920;2.332;2023-09-19T11:03:18;25.42;45.36
69206;SHT30;56319;48.920;2.332;2023-09-19T11:06:03;25.42;45.30
69206;SHT30;56319;48.920;2.332;2023-09-19T11:08:56;25.45;45.30
69206;SHT30;56319;48.920;2.332;2023-09-19T11:11:43;25.44;45.30
69206;SHT30;56319;48.920;2.332;2023-09-19T11:14:29;25.47;45.26
69206;SHT30;56319;48.920;2.332;2023-09-19T11:20:22;25.51;45.16
69206;SHT30;56319;48.920;2.332;2023-09-19T11:23:21;25.55;45.12
69206;SHT30;56319;48.920;2.332;2023-09-19T11:25:48;25.55;45.06
69206;SHT30;56319;48.920;2.332;2023-09-19T11:28:33;25.58;45.09
69206;SHT30;56319;48.920;2.332;2023-09-19T11:31:40;25.59;45.06
69206;SHT30;56319;48.920;2.332;2023-09-19T11:40:18;25.66;44.92
69206;SHT30;56319;48.920;2.332;2023-09-19T11:42:46;25.65;44.90
69206;SHT30;56319;48.920;2.332;2023-09-19T11:48:24;25.68;44.90
69206;SHT30;56319;48.920;2.332;2023-09-19T11:50:52;25.69;44.85
69206;SHT30;56319;48.920;2.332;2023-09-19T11:53:19;25.66;44.79
69206;SHT30;56319;48.920;2.332;2023-09-19T11:55:45;25.69;44.78
69206;SHT30;56319;48.920;2.332;2023-09-19T11:58:12;25.66;44.76
69206;SHT30;56319;48.920;2.332;2023-09-19T12:00:42;25.66;44.79
69206;SHT30;56319;48.920;2.332;2023-09-19T12:03:10;25.66;44.77
69206;SHT30;56319;48.920;2.332;2023-09-19T12:05:37;25.65;44.76
69206;SHT30;56319;48.920;2.332;2023-09-19T12:08:04;25.65;44.79
69206;SHT30;56319;48.920;2.332;2023-09-19T12:10:44;25.62;44.79
69206;SHT30;56319;48.920;2.332;2023-09-19T12:13:10;25.62;44.84
69206;SHT30;56319;48.920;2.332;2023-09-19T12:15:40;25.63;44.83
69206;SHT30;56319;48.920;2.332;2023-09-19T12:18:25;25.61;44.79
69206;SHT30;56319;48.920;2.332;2023-09-19T12:20:52;25.62;44.76
69206;SHT30;56319;48.920;2.332;2023-09-19T12:23:18;25.61;44.77
69206;SHT30;56319;48.920;2.332;2023-09-19T12:25:45;25.66;44.76
69206;SHT30;56319;48.920;2.332;2023-09-19T12:28:14;25.66;44.75
69206;SHT30;56319;48.920;2.332;2023-09-19T12:30:39;25.66;44.72
69206;SHT30;56319;48.920;2.332;2023-09-19T12:33:18;25.65;44.73
69206;SHT30;56319;48.920;2.332;2023-09-19T12:35:46;25.65;44.73
69206;SHT30;56319;48.920;2.332;2023-09-19T12:38:32;25.66;44.77
69206;SHT30;56319;48.920;2.332;2023-09-19T12:41:01;25.65;44.68
69206;SHT30;56319;48.920;2.332;2023-09-19T12:43:29;25.65;44.70
69206;SHT30;56319;48.920;2.332;2023-09-19T12:45:58;25.68;44.72
69206;SHT30;56319;48.920;2.332;2023-09-19T12:48:26;25.66;44.71
69206;SHT30;56319;48.920;2.332;2023-09-19T12:53:57;25.65;44.70
69206;SHT30;56319;48.920;2.332;2023-09-19T12:56:22;25.68;44.73
69206;SHT30;56319;48.920;2.332;2023-09-19T12:59:08;25.65;44.67
69206;SHT30;56319;48.920;2.332;2023-09-19T13:01:37;25.66;44.63
69206;SHT30;56319;48.920;2.332;2023-09-19T13:06:58;25.66;44.67
69206;SHT30;56319;48.920;2.332;2023-09-19T13:09:27;25.71;44.65
69206;SHT30;56319;48.920;2.332;2023-09-19T13:12:00;25.69;44.63
69206;SHT30;56319;48.920;2.332;2023-09-19T13:14:28;25.71;44.65
69206;SHT30;56319;48.920;2.332;2023-09-19T13:17:06;25.72;44.64
69206;SHT30;56319;48.920;2.332;2023-09-19T13:19:46;25.75;44.61
69206;SHT30;56319;48.920;2.332;2023-09-19T13:22:39;25.75;44.59
69206;SHT30;56319;48.920;2.332;2023-09-19T13:25:13;25.78;44.63
69206;SHT30;56319;48.920;2.332;2023-09-19T13:27:42;25.78;44.53
69206;SHT30;56319;48.920;2.332;2023-09-19T13:30:10;25.78;44.57
69206;SHT30;56319;48.920;2.332;2023-09-19T13:32:35;25.79;44.58
69206;SHT30;56319;48.920;2.332;2023-09-19T13:35:01;25.79;44.58
69206;SHT30;56319;48.920;2.332;2023-09-19T13:37:26;25.78;44.52
69206;SHT30;56319;48.920;2.332;2023-09-19T13:39:52;25.79;44.55
69206;SHT30;56319;48.920;2.332;2023-09-19T13:42:19;25.80;44.53
69206;SHT30;56319;48.920;2.332;2023-09-19T13:44:47;25.79;44.48
69206;SHT30;56319;48.920;2.332;2023-09-19T13:47:13;25.82;44.50
69206;SHT30;56319;48.920;2.332;2023-09-19T13:49:40;25.83;44.50
69206;SHT30;56319;48.920;2.332;2023-09-19T13:52:06;25.83;44.48
69206;SHT30;56319;48.920;2.332;2023-09-19T13:54:32;25.83;44.47
69206;SHT30;56319;48.920;2.332;2023-09-19T13:56:58;25.86;44.43
69206;SHT30;56319;48.920;2.332;2023-09-19T13:59:24;25.88;44.40
69206;SHT30;56319;48.920;2.332;2023-09-19T14:01:50;25.89;44.34
69206;SHT30;56319;48.920;2.332;2023-09-19T14:04:16;25.92;44.36
69206;SHT30;56319;48.920;2.332;2023-09-19T14:06:42;25.90;44.34
69206;SHT30;56319;48.920;2.332;2023-09-19T14:09:08;25.93;44.36
69206;SHT30;56319;48.920;2.332;2023-09-19T14:11:36;25.92;44.32
69206;SHT30;56319;48.920;2.332;2023-09-19T14:14:02;25.92;44.37
69206;SHT30;56319;48.920;2.332;2023-09-19T14:16:27;25.92;44.40
69206;SHT30;56319;48.920;2.332;2023-09-19T14:18:56;25.92;44.41
69206;SHT30;56319;48.920;2.332;2023-09-19T14:21:23;25.90;44.33
69206;SHT30;56319;48.920;2.332;2023-09-19T14:23:51;25.89;44.35
69206;SHT30;56319;48.920;2.332;2023-09-19T14:26:17;25.88;44.40
69206;SHT30;56319;48.920;2.332;2023-09-19T14:28:43;25.86;44.38
69206;SHT30;56319;48.920;2.332;2023-09-19T14:31:11;25.85;44.39
69206;SHT30;56319;48.920;2.332;2023-09-19T14:33:37;25.85;44.39
69206;SHT30;56319;48.920;2.332;2023-09-19T14:36:05;25.83;44.41
69206;SHT30;56319;48.920;2.332;2023-09-19T14:38:33;25.83;44.38
69206;SHT30;56319;48.920;2.332;2023-09-19T14:41:00;25.82;44.41
69206;SHT30;56319;48.920;2.332;2023-09-19T14:43:26;25.82;44.42
69206;SHT30;56319;48.920;2.332;2023-09-19T14:45:53;25.80;44.43
69206;SHT30;56319;48.920;2.332;2023-09-19T14:48:19;25.80;44.41
69206;SHT30;56319;48.920;2.332;2023-09-19T14:50:44;25.79;44.40
69206;SHT30;56319;48.920;2.332;2023-09-19T14:53:10;25.78;44.43
69206;SHT30;56319;48.920;2.332;2023-09-19T14:55:37;25.76;44.46
69206;SHT30;56319;48.920;2.332;2023-09-19T14:58:07;25.79;44.46
69206;SHT30;56319;48.920;2.332;2023-09-19T15:00:33;25.78;44.39
69206;SHT30;56319;48.920;2.332;2023-09-19T15:02:59;25.78;44.48
69206;SHT30;56319;48.920;2.332;2023-09-19T15:05:25;25.76;44.46
69206;SHT30;56319;48.920;2.332;2023-09-19T15:07:50;25.78;44.49
69206;SHT30;56319;48.920;2.332;2023-09-19T15:10:16;25.78;44.51
69206;SHT30;56319;48.920;2.332;2023-09-19T15:12:43;25.76;44.50
69206;SHT30;56319;48.920;2.332;2023-09-19T15:15:09;25.73;44.47
69206;SHT30;56319;48.920;2.332;2023-09-19T15:17:36;25.73;44.54
69206;SHT30;56319;48.920;2.332;2023-09-19T15:20:02;25.72;44.51
69206;SHT30;56319;48.920;2.332;2023-09-19T15:22:32;25.73;44.55
69206;SHT30;56319;48.920;2.332;2023-09-19T15:24:58;25.73;44.58
69206;SHT30;56319;48.920;2.332;2023-09-19T15:27:25;25.71;44.57
69206;SHT30;56319;48.920;2.332;2023-09-19T15:29:50;25.71;44.62
69206;SHT30;56319;48.920;2.332;2023-09-19T15:32:16;25.69;44.62
69206;SHT30;56319;48.920;2.332;2023-09-19T15:34:41;25.66;44.67
69206;SHT30;56319;48.920;2.332;2023-09-19T15:37:07;25.69;44.67
69206;SHT30;56319;48.920;2.332;2023-09-19T15:39:32;25.68;44.66
69206;SHT30;56319;48.920;2.332;2023-09-19T15:41:59;25.69;44.68
69206;SHT30;56319;48.920;2.332;2023-09-19T15:44:24;25.69;44.72
69206;SHT30;56319;48.920;2.332;2023-09-19T15:46:52;25.68;44.67
69206;SHT30;56319;48.920;2.332;2023-09-19T15:49:18;25.69;44.71
69206;SHT30;56319;48.920;2.332;2023-09-19T15:51:44;25.69;44.71
69206;SHT30;56319;48.920;2.332;2023-09-19T15:54:12;25.69;44.70
69206;SHT30;56319;48.920;2.332;2023-09-19T15:56:39;25.71;44.71
69206;SHT30;56319;48.920;2.332;2023-09-19T15:59:06;25.69;44.72
69206;SHT30;56319;48.920;2.332;2023-09-19T16:01:32;25.69;44.72
69206;SHT30;56319;48.920;2.332;2023-09-19T16:03:57;25.68;44.75
69206;SHT30;56319;48.920;2.332;2023-09-19T16:06:27;25.68;44.72
69206;SHT30;56319;48.920;2.332;2023-09-19T16:08:55;25.65;44.75
69206;SHT30;56319;48.920;2.332;2023-09-19T16:11:21;25.66;44.75